Star Kamila — V7HG5 — position and weather

sailwx.info

Track history (hours):
 
Tides and Currents Weather Stations Pressure Air Temp Water Temp Dewpoint Dewpoint Depression Visibility Wind Speed Wind Dir Waves Ship Positions

Star Kamila

Last reported at 2017-Nov-17 05:34 UTC. Time now 2017-Dec-17 15:55 UTC.
Position N 36°13' E 014°40'.
Warning: this ship's position is 30 days out of date.

Length 229 m; draft 14.4 m.

Type: Cargo ship. MMSI: 538002227.

Date/timePositionNaut miles runAvg speedWind from/ knotsBaromVisibWave heightAir tempDewpointWater temp
2017-Nov-17 05:34N 36°13' E 014°40'112.3
2017-Nov-17 05:30N 36°13' E 014°39'612.1
2017-Nov-17 05:00N 36°15' E 014°32'612.3
2017-Nov-17 04:29N 36°17' E 014°25'612.2
2017-Nov-17 04:00N 36°19' E 014°18'612.3
2017-Nov-17 03:29N 36°21' E 014°10'612.3
2017-Nov-17 03:00N 36°23' E 014°03'612.2
2017-Nov-17 02:30N 36°25' E 013°56'612.3
2017-Nov-17 02:00N 36°27' E 013°49'612.3
2017-Nov-17 01:29N 36°29' E 013°41'  
2017-Nov-13 01:59N 36°07' W 005°22'0 0.1
2017-Nov-13 01:19N 36°07' W 005°22'1 4.0
2017-Nov-13 01:00N 36°06' W 005°21'2 3.6
2017-Nov-13 00:31N 36°05' W 005°19'4 7.0
2017-Nov-13 00:01N 36°06' W 005°15'5 9.0
2017-Nov-12 23:30N 36°09' W 005°11'1 1.7
2017-Nov-12 23:00N 36°10' W 005°10'3 3.8
2017-Nov-12 22:14N 36°07' W 005°11'0 2.2
2017-Nov-12 22:00N 36°07' W 005°10'3 6.5
2017-Nov-12 21:30N 36°04' W 005°11'5 9.4
2017-Nov-12 21:00N 36°00' W 005°15'612.5
2017-Nov-12 20:31N 35°59' W 005°23'5 9.9
2017-Nov-12 20:01N 35°57' W 005°28'16311.9
2017-Nov-12 06:16N 36°27' W 008°47'1311.7
2017-Nov-12 05:08N 36°31' W 009°03'2911.3
2017-Nov-12 02:33N 36°47' W 009°33'111.8
2017-Nov-12 02:30N 36°48' W 009°33'812.0
2017-Nov-12 01:51N 36°56' W 009°35'411.8
2017-Nov-12 01:30N 36°59' W 009°37'1111.8
2017-Nov-12 00:35N 37°10' W 009°39'111.7
2017-Nov-12 00:30N 37°11' W 009°39'611.8
2017-Nov-12 00:00N 37°17' W 009°41'811.8
2017-Nov-11 23:18N 37°25' W 009°44'412.0
2017-Nov-11 23:01N 37°28' W 009°45'612.2
2017-Nov-11 22:30N 37°34' W 009°46'612.1
2017-Nov-11 22:00N 37°40' W 009°48'611.9
2017-Nov-11 21:30N 37°46' W 009°50'611.8
2017-Nov-11 21:01N 37°52' W 009°51'612.1
2017-Nov-11 20:30N 37°58' W 009°53'611.9
2017-Nov-11 20:00N 38°04' W 009°54'611.7
2017-Nov-11 19:31N 38°09' W 009°55'611.9
2017-Nov-11 19:00N 38°15' W 009°56'611.8
2017-Nov-11 18:31N 38°21' W 009°58'612.0
2017-Nov-11 18:00N 38°27' W 010°00'612.0
2017-Nov-11 17:30N 38°33' W 010°02'611.7
2017-Nov-11 17:00N 38°38' W 010°04'611.7
2017-Nov-11 16:31N 38°44' W 010°06'611.7
2017-Nov-11 16:00N 38°50' W 010°06'611.6
2017-Nov-11 15:31N 38°55' W 010°06'611.4
2017-Nov-11 15:00N 39°01' W 010°06'611.9
2017-Nov-11 14:30N 39°07' W 010°06'612.0
2017-Nov-11 14:00N 39°13' W 010°06'611.8
2017-Nov-11 13:30N 39°19' W 010°06'57411.4
2017-Nov-09 11:11N 48°27' W 006°09'612.3
2017-Nov-09 10:41N 48°32' W 006°04'512.2
2017-Nov-09 10:16N 48°37' W 006°00'612.0
2017-Nov-09 09:48N 48°41' W 005°56'611.3
2017-Nov-09 09:14N 48°47' W 005°51'10610.4
2017-Nov-08 23:05N 49°44' W 003°35'210.1
2017-Nov-08 22:54N 49°45' W 003°32'5 9.8
2017-Nov-08 22:26N 49°47' W 003°26'8 9.4
2017-Nov-08 21:36N 49°51' W 003°16'1 9.2
2017-Nov-08 21:30N 49°52' W 003°15'6 9.4
2017-Nov-08 20:54N 49°54' W 003°07'4 9.6
2017-Nov-08 20:30N 49°56' W 003°02'5 9.9
2017-Nov-08 20:01N 49°58' W 002°55'510.5
2017-Nov-08 19:30N 49°60' W 002°47'611.1
2017-Nov-08 19:01N 50°01' W 002°39'2413.2
2017-Nov-08 17:13N 50°08' W 002°03'314.7
2017-Nov-08 17:00N 50°09' W 001°59'714.9
2017-Nov-08 16:31N 50°11' W 001°48'714.7
2017-Nov-08 16:00N 50°13' W 001°36'714.3
2017-Nov-08 15:30N 50°15' W 001°26'713.7
2017-Nov-08 15:00N 50°16' W 001°15'4010.2
2017-Nov-08 11:08N 50°27' W 000°16'1 8.8
2017-Nov-08 11:00N 50°27' W 000°14'5 9.2
2017-Nov-08 10:29N 50°28' W 000°07'5 9.4
2017-Nov-08 10:00N 50°29' E 000°00'5 9.9
2017-Nov-08 09:30N 50°30' E 000°08'510.7
2017-Nov-08 09:00N 50°32' E 000°16'611.5
2017-Nov-08 08:30N 50°34' E 000°25'612.2
2017-Nov-08 08:00N 50°36' E 000°33'612.3
2017-Nov-08 07:31N 50°39' E 000°41'612.6
2017-Nov-08 07:01N 50°43' E 000°49'612.4
2017-Nov-08 06:31N 50°48' E 000°56'911.9
2017-Nov-08 05:44N 50°54' E 001°08'511.2
2017-Nov-08 05:19N 50°57' E 001°13'310.6
2017-Nov-08 05:01N 50°59' E 001°17'5 9.9
2017-Nov-08 04:30N 51°02' E 001°23'5 9.2
2017-Nov-08 04:01N 51°05' E 001°29'4 8.2
2017-Nov-08 03:31N 51°07' E 001°34'4 7.8
2017-Nov-08 03:01N 51°10' E 001°39'4 8.2
2017-Nov-08 02:31N 51°12' E 001°44'4 8.5
2017-Nov-08 02:01N 51°16' E 001°48'5 9.6
2017-Nov-08 01:30N 51°20' E 001°52'510.5
2017-Nov-08 01:00N 51°24' E 001°56'611.4
2017-Nov-08 00:31N 51°29' E 002°01'612.2
2017-Nov-08 00:00N 51°33' E 002°09'612.7
2017-Nov-07 23:30N 51°38' E 002°16'5611.5
2017-Nov-07 18:38N 52°29' E 002°54'1 9.7
2017-Nov-07 18:30N 52°30' E 002°55'5 9.5
2017-Nov-07 18:00N 52°34' E 002°58'  
Track history (hours):
 
Tides and Currents Weather Stations Pressure Air Temp Water Temp Dewpoint Dewpoint Depression Visibility Wind Speed Wind Dir Waves Ship Positions

Star Kamila

Last reported at 2017-Nov-17 05:34 UTC. Time now 2017-Dec-17 15:55 UTC.
Position N 36°13' E 014°40'.
Warning: this ship's position is 30 days out of date.

Length 229 m; draft 14.4 m.

Type: Cargo ship. MMSI: 538002227.

Date/timePositionNaut miles runAvg speedWind from/ knotsBaromVisibWave heightAir tempDewpointWater temp
2017-Nov-17 05:34N 36°13' E 014°40'112.3
2017-Nov-17 05:30N 36°13' E 014°39'612.1
2017-Nov-17 05:00N 36°15' E 014°32'612.3
2017-Nov-17 04:29N 36°17' E 014°25'612.2
2017-Nov-17 04:00N 36°19' E 014°18'612.3
2017-Nov-17 03:29N 36°21' E 014°10'612.3
2017-Nov-17 03:00N 36°23' E 014°03'612.2
2017-Nov-17 02:30N 36°25' E 013°56'612.3
2017-Nov-17 02:00N 36°27' E 013°49'612.3
2017-Nov-17 01:29N 36°29' E 013°41'  
2017-Nov-13 01:59N 36°07' W 005°22'0 0.1
2017-Nov-13 01:19N 36°07' W 005°22'1 4.0
2017-Nov-13 01:00N 36°06' W 005°21'2 3.6
2017-Nov-13 00:31N 36°05' W 005°19'4 7.0
2017-Nov-13 00:01N 36°06' W 005°15'5 9.0
2017-Nov-12 23:30N 36°09' W 005°11'1 1.7
2017-Nov-12 23:00N 36°10' W 005°10'3 3.8
2017-Nov-12 22:14N 36°07' W 005°11'0 2.2
2017-Nov-12 22:00N 36°07' W 005°10'3 6.5
2017-Nov-12 21:30N 36°04' W 005°11'5 9.4
2017-Nov-12 21:00N 36°00' W 005°15'612.5
2017-Nov-12 20:31N 35°59' W 005°23'5 9.9
2017-Nov-12 20:01N 35°57' W 005°28'16311.9
2017-Nov-12 06:16N 36°27' W 008°47'1311.7
2017-Nov-12 05:08N 36°31' W 009°03'2911.3
2017-Nov-12 02:33N 36°47' W 009°33'111.8
2017-Nov-12 02:30N 36°48' W 009°33'812.0
2017-Nov-12 01:51N 36°56' W 009°35'411.8
2017-Nov-12 01:30N 36°59' W 009°37'1111.8
2017-Nov-12 00:35N 37°10' W 009°39'111.7
2017-Nov-12 00:30N 37°11' W 009°39'611.8
2017-Nov-12 00:00N 37°17' W 009°41'811.8
2017-Nov-11 23:18N 37°25' W 009°44'412.0
2017-Nov-11 23:01N 37°28' W 009°45'612.2
2017-Nov-11 22:30N 37°34' W 009°46'612.1
2017-Nov-11 22:00N 37°40' W 009°48'611.9
2017-Nov-11 21:30N 37°46' W 009°50'611.8
2017-Nov-11 21:01N 37°52' W 009°51'612.1
2017-Nov-11 20:30N 37°58' W 009°53'611.9
2017-Nov-11 20:00N 38°04' W 009°54'611.7
2017-Nov-11 19:31N 38°09' W 009°55'611.9
2017-Nov-11 19:00N 38°15' W 009°56'611.8
2017-Nov-11 18:31N 38°21' W 009°58'612.0
2017-Nov-11 18:00N 38°27' W 010°00'612.0
2017-Nov-11 17:30N 38°33' W 010°02'611.7
2017-Nov-11 17:00N 38°38' W 010°04'611.7
2017-Nov-11 16:31N 38°44' W 010°06'611.7
2017-Nov-11 16:00N 38°50' W 010°06'611.6
2017-Nov-11 15:31N 38°55' W 010°06'611.4
2017-Nov-11 15:00N 39°01' W 010°06'611.9
2017-Nov-11 14:30N 39°07' W 010°06'612.0
2017-Nov-11 14:00N 39°13' W 010°06'611.8
2017-Nov-11 13:30N 39°19' W 010°06'57411.4
2017-Nov-09 11:11N 48°27' W 006°09'612.3
2017-Nov-09 10:41N 48°32' W 006°04'512.2
2017-Nov-09 10:16N 48°37' W 006°00'612.0
2017-Nov-09 09:48N 48°41' W 005°56'611.3
2017-Nov-09 09:14N 48°47' W 005°51'10610.4
2017-Nov-08 23:05N 49°44' W 003°35'210.1
2017-Nov-08 22:54N 49°45' W 003°32'5 9.8
2017-Nov-08 22:26N 49°47' W 003°26'8 9.4
2017-Nov-08 21:36N 49°51' W 003°16'1 9.2
2017-Nov-08 21:30N 49°52' W 003°15'6 9.4
2017-Nov-08 20:54N 49°54' W 003°07'4 9.6
2017-Nov-08 20:30N 49°56' W 003°02'5 9.9
2017-Nov-08 20:01N 49°58' W 002°55'510.5
2017-Nov-08 19:30N 49°60' W 002°47'611.1
2017-Nov-08 19:01N 50°01' W 002°39'2413.2
2017-Nov-08 17:13N 50°08' W 002°03'314.7
2017-Nov-08 17:00N 50°09' W 001°59'714.9
2017-Nov-08 16:31N 50°11' W 001°48'714.7
2017-Nov-08 16:00N 50°13' W 001°36'714.3
2017-Nov-08 15:30N 50°15' W 001°26'713.7
2017-Nov-08 15:00N 50°16' W 001°15'4010.2
2017-Nov-08 11:08N 50°27' W 000°16'1 8.8
2017-Nov-08 11:00N 50°27' W 000°14'5 9.2
2017-Nov-08 10:29N 50°28' W 000°07'5 9.4
2017-Nov-08 10:00N 50°29' E 000°00'5 9.9
2017-Nov-08 09:30N 50°30' E 000°08'510.7
2017-Nov-08 09:00N 50°32' E 000°16'611.5
2017-Nov-08 08:30N 50°34' E 000°25'612.2
2017-Nov-08 08:00N 50°36' E 000°33'612.3
2017-Nov-08 07:31N 50°39' E 000°41'612.6
2017-Nov-08 07:01N 50°43' E 000°49'612.4
2017-Nov-08 06:31N 50°48' E 000°56'911.9
2017-Nov-08 05:44N 50°54' E 001°08'511.2
2017-Nov-08 05:19N 50°57' E 001°13'310.6
2017-Nov-08 05:01N 50°59' E 001°17'5 9.9
2017-Nov-08 04:30N 51°02' E 001°23'5 9.2
2017-Nov-08 04:01N 51°05' E 001°29'4 8.2
2017-Nov-08 03:31N 51°07' E 001°34'4 7.8
2017-Nov-08 03:01N 51°10' E 001°39'4 8.2
2017-Nov-08 02:31N 51°12' E 001°44'4 8.5
2017-Nov-08 02:01N 51°16' E 001°48'5 9.6
2017-Nov-08 01:30N 51°20' E 001°52'510.5
2017-Nov-08 01:00N 51°24' E 001°56'611.4
2017-Nov-08 00:31N 51°29' E 002°01'612.2
2017-Nov-08 00:00N 51°33' E 002°09'612.7
2017-Nov-07 23:30N 51°38' E 002°16'5611.5
2017-Nov-07 18:38N 52°29' E 002°54'1 9.7
2017-Nov-07 18:30N 52°30' E 002°55'5 9.5
2017-Nov-07 18:00N 52°34' E 002°58'  

Dump ship's entire track history